sensor_id;sensor_type;location;lat;lon;timestamp;temperature;humidity
38480;DHT22;62333;51.980;5.934;2022-10-31T00:00:56;17.00;84.00
38480;DHT22;62333;51.980;5.934;2022-10-31T00:03:22;16.90;83.90
38480;DHT22;62333;51.980;5.934;2022-10-31T00:05:49;16.90;84.00
38480;DHT22;62333;51.980;5.934;2022-10-31T00:08:16;16.90;84.00
38480;DHT22;62333;51.980;5.934;2022-10-31T00:10:43;16.90;84.00
38480;DHT22;62333;51.980;5.934;2022-10-31T00:13:09;16.90;84.10
38480;DHT22;62333;51.980;5.934;2022-10-31T00:15:36;16.80;84.00
38480;DHT22;62333;51.980;5.934;2022-10-31T00:18:03;16.80;84.00
38480;DHT22;62333;51.980;5.934;2022-10-31T00:20:29;16.70;84.00
38480;DHT22;62333;51.980;5.934;2022-10-31T00:23:01;16.70;84.00
38480;DHT22;62333;51.980;5.934;2022-10-31T00:25:28;16.70;84.10
38480;DHT22;62333;51.980;5.934;2022-10-31T00:27:54;16.60;84.10
38480;DHT22;62333;51.980;5.934;2022-10-31T00:30:20;16.60;84.10
38480;DHT22;62333;51.980;5.934;2022-10-31T00:32:46;16.60;84.20
38480;DHT22;62333;51.980;5.934;2022-10-31T00:35:11;16.60;84.20
38480;DHT22;62333;51.980;5.934;2022-10-31T00:37:37;16.50;84.10
38480;DHT22;62333;51.980;5.934;2022-10-31T00:40:03;16.50;84.00
38480;DHT22;62333;51.980;5.934;2022-10-31T00:42:29;16.50;84.00
38480;DHT22;62333;51.980;5.934;2022-10-31T00:44:54;16.50;84.60
38480;DHT22;62333;51.980;5.934;2022-10-31T00:47:20;16.40;84.00
38480;DHT22;62333;51.980;5.934;2022-10-31T00:49:45;16.40;83.90
38480;DHT22;62333;51.980;5.934;2022-10-31T00:52:11;16.40;84.00
38480;DHT22;62333;51.980;5.934;2022-10-31T00:54:37;16.40;84.10
38480;DHT22;62333;51.980;5.934;2022-10-31T00:57:03;16.30;84.20
38480;DHT22;62333;51.980;5.934;2022-10-31T00:59:28;16.30;84.20
38480;DHT22;62333;51.980;5.934;2022-10-31T01:01:54;16.30;84.30
38480;DHT22;62333;51.980;5.934;2022-10-31T01:04:19;16.30;84.30
38480;DHT22;62333;51.980;5.934;2022-10-31T01:06:45;16.30;85.00
38480;DHT22;62333;51.980;5.934;2022-10-31T01:09:11;16.20;84.40
38480;DHT22;62333;51.980;5.934;2022-10-31T01:11:36;16.20;84.40
38480;DHT22;62333;51.980;5.934;2022-10-31T01:14:02;16.20;84.40
38480;DHT22;62333;51.980;5.934;2022-10-31T01:16:28;16.20;84.40
38480;DHT22;62333;51.980;5.934;2022-10-31T01:18:55;16.10;84.40
38480;DHT22;62333;51.980;5.934;2022-10-31T01:21:26;16.10;84.50
38480;DHT22;62333;51.980;5.934;2022-10-31T01:23:55;16.10;84.60
38480;DHT22;62333;51.980;5.934;2022-10-31T01:26:27;16.10;84.60
38480;DHT22;62333;51.980;5.934;2022-10-31T01:28:55;16.10;85.30
38480;DHT22;62333;51.980;5.934;2022-10-31T01:31:23;16.00;84.60
38480;DHT22;62333;51.980;5.934;2022-10-31T01:33:49;16.00;84.60
38480;DHT22;62333;51.980;5.934;2022-10-31T01:36:21;16.00;84.60
38480;DHT22;62333;51.980;5.934;2022-10-31T01:38:48;16.00;84.60
38480;DHT22;62333;51.980;5.934;2022-10-31T01:41:22;15.90;84.60
38480;DHT22;62333;51.980;5.934;2022-10-31T01:43:56;15.90;84.60
38480;DHT22;62333;51.980;5.934;2022-10-31T01:46:25;15.90;84.60
38480;DHT22;62333;51.980;5.934;2022-10-31T01:48:53;15.90;84.60
38480;DHT22;62333;51.980;5.934;2022-10-31T01:51:25;15.80;84.60
38480;DHT22;62333;51.980;5.934;2022-10-31T01:53:52;15.80;84.50
38480;DHT22;62333;51.980;5.934;2022-10-31T01:56:20;15.80;84.40
38480;DHT22;62333;51.980;5.934;2022-10-31T01:58:46;15.80;84.40
38480;DHT22;62333;51.980;5.934;2022-10-31T02:01:13;15.80;84.50
38480;DHT22;62333;51.980;5.934;2022-10-31T02:03:39;15.70;84.40
38480;DHT22;62333;51.980;5.934;2022-10-31T02:06:09;15.80;84.60
38480;DHT22;62333;51.980;5.934;2022-10-31T02:08:37;15.70;84.60
38480;DHT22;62333;51.980;5.934;2022-10-31T02:11:05;15.70;84.60
38480;DHT22;62333;51.980;5.934;2022-10-31T02:13:34;15.70;84.70
38480;DHT22;62333;51.980;5.934;2022-10-31T02:16:00;15.60;84.60
38480;DHT22;62333;51.980;5.934;2022-10-31T02:18:28;15.70;84.70
38480;DHT22;62333;51.980;5.934;2022-10-31T02:21:22;15.60;84.60
38480;DHT22;62333;51.980;5.934;2022-10-31T02:29:30;15.50;84.60
38480;DHT22;62333;51.980;5.934;2022-10-31T02:32:11;15.50;84.70
38480;DHT22;62333;51.980;5.934;2022-10-31T02:34:54;15.50;84.70
38480;DHT22;62333;51.980;5.934;2022-10-31T02:40:13;15.50;84.80
38480;DHT22;62333;51.980;5.934;2022-10-31T02:43:00;15.50;84.70
38480;DHT22;62333;51.980;5.934;2022-10-31T02:46:38;15.50;84.70
38480;DHT22;62333;51.980;5.934;2022-10-31T02:49:00;15.40;84.60
38480;DHT22;62333;51.980;5.934;2022-10-31T02:51:28;15.40;84.80
38480;DHT22;62333;51.980;5.934;2022-10-31T02:53:53;15.30;84.80
38480;DHT22;62333;51.980;5.934;2022-10-31T02:56:19;15.30;84.80
38480;DHT22;62333;51.980;5.934;2022-10-31T02:58:49;15.30;84.80
38480;DHT22;62333;51.980;5.934;2022-10-31T03:07:40;15.20;84.80
38480;DHT22;62333;51.980;5.934;2022-10-31T03:16:23;15.20;84.80
38480;DHT22;62333;51.980;5.934;2022-10-31T03:19:04;15.10;84.70
38480;DHT22;62333;51.980;5.934;2022-10-31T03:24:05;15.00;84.70
38480;DHT22;62333;51.980;5.934;2022-10-31T03:26:32;15.00;84.80
38480;DHT22;62333;51.980;5.934;2022-10-31T03:29:03;15.00;84.60
38480;DHT22;62333;51.980;5.934;2022-10-31T03:31:33;14.90;84.60
38480;DHT22;62333;51.980;5.934;2022-10-31T03:34:02;14.90;84.60
38480;DHT22;62333;51.980;5.934;2022-10-31T03:36:34;14.90;84.70
38480;DHT22;62333;51.980;5.934;2022-10-31T03:39:04;14.90;84.80
38480;DHT22;62333;51.980;5.934;2022-10-31T03:41:37;14.80;84.80
38480;DHT22;62333;51.980;5.934;2022-10-31T03:44:22;14.80;84.80
38480;DHT22;62333;51.980;5.934;2022-10-31T03:46:49;14.80;84.70
38480;DHT22;62333;51.980;5.934;2022-10-31T03:49:15;14.70;84.70
38480;DHT22;62333;51.980;5.934;2022-10-31T03:54:24;14.70;84.60
38480;DHT22;62333;51.980;5.934;2022-10-31T03:56:57;14.70;84.50
38480;DHT22;62333;51.980;5.934;2022-10-31T03:59:29;14.60;84.50
38480;DHT22;62333;51.980;5.934;2022-10-31T04:02:00;14.60;84.50
38480;DHT22;62333;51.980;5.934;2022-10-31T04:04:29;14.60;84.60
38480;DHT22;62333;51.980;5.934;2022-10-31T04:06:56;14.50;84.50
38480;DHT22;62333;51.980;5.934;2022-10-31T04:09:25;14.50;84.50
38480;DHT22;62333;51.980;5.934;2022-10-31T04:11:54;14.50;84.60
38480;DHT22;62333;51.980;5.934;2022-10-31T04:14:24;14.50;84.60
38480;DHT22;62333;51.980;5.934;2022-10-31T04:16:50;14.40;84.40
38480;DHT22;62333;51.980;5.934;2022-10-31T04:19:16;14.40;84.50
38480;DHT22;62333;51.980;5.934;2022-10-31T04:21:42;14.40;84.50
38480;DHT22;62333;51.980;5.934;2022-10-31T04:24:09;14.30;84.40
38480;DHT22;62333;51.980;5.934;2022-10-31T04:26:35;14.30;84.40
38480;DHT22;62333;51.980;5.934;2022-10-31T04:29:01;14.30;84.40
38480;DHT22;62333;51.980;5.934;2022-10-31T04:31:27;14.30;84.50
38480;DHT22;62333;51.980;5.934;2022-10-31T04:33:52;14.20;84.40
38480;DHT22;62333;51.980;5.934;2022-10-31T04:36:18;14.20;84.40
38480;DHT22;62333;51.980;5.934;2022-10-31T04:38:44;14.20;84.40
38480;DHT22;62333;51.980;5.934;2022-10-31T04:41:09;14.20;84.40
38480;DHT22;62333;51.980;5.934;2022-10-31T04:43:35;14.20;84.50
38480;DHT22;62333;51.980;5.934;2022-10-31T04:46:01;14.10;84.50
38480;DHT22;62333;51.980;5.934;2022-10-31T04:48:26;14.10;84.60
38480;DHT22;62333;51.980;5.934;2022-10-31T04:50:52;14.10;84.60
38480;DHT22;62333;51.980;5.934;2022-10-31T04:53:18;14.10;84.60
38480;DHT22;62333;51.980;5.934;2022-10-31T04:55:43;14.10;84.60
38480;DHT22;62333;51.980;5.934;2022-10-31T04:58:09;14.10;84.60
38480;DHT22;62333;51.980;5.934;2022-10-31T05:00:35;14.00;84.60
38480;DHT22;62333;51.980;5.934;2022-10-31T05:03:00;14.00;84.50
38480;DHT22;62333;51.980;5.934;2022-10-31T05:05:29;14.00;84.50
38480;DHT22;62333;51.980;5.934;2022-10-31T05:07:55;14.00;84.50
38480;DHT22;62333;51.980;5.934;2022-10-31T05:10:23;13.90;84.50
38480;DHT22;62333;51.980;5.934;2022-10-31T05:13:08;13.90;84.50
38480;DHT22;62333;51.980;5.934;2022-10-31T05:15:33;13.90;84.50
38480;DHT22;62333;51.980;5.934;2022-10-31T05:18:00;13.90;84.60
38480;DHT22;62333;51.980;5.934;2022-10-31T05:20:27;13.90;84.60
38480;DHT22;62333;51.980;5.934;2022-10-31T05:22:56;13.90;84.60
38480;DHT22;62333;51.980;5.934;2022-10-31T05:25:23;13.80;84.60
38480;DHT22;62333;51.980;5.934;2022-10-31T05:27:51;13.80;84.70
38480;DHT22;62333;51.980;5.934;2022-10-31T05:30:19;13.80;84.80
38480;DHT22;62333;51.980;5.934;2022-10-31T05:32:47;13.80;85.00
38480;DHT22;62333;51.980;5.934;2022-10-31T05:35:16;13.80;85.00
38480;DHT22;62333;51.980;5.934;2022-10-31T05:37:42;13.80;85.00
38480;DHT22;62333;51.980;5.934;2022-10-31T05:40:11;13.80;85.00
38480;DHT22;62333;51.980;5.934;2022-10-31T05:42:39;13.80;85.00
38480;DHT22;62333;51.980;5.934;2022-10-31T05:45:06;13.80;85.10
38480;DHT22;62333;51.980;5.934;2022-10-31T05:47:31;13.80;85.10
38480;DHT22;62333;51.980;5.934;2022-10-31T05:49:57;13.80;85.10
38480;DHT22;62333;51.980;5.934;2022-10-31T05:52:23;13.80;85.10
38480;DHT22;62333;51.980;5.934;2022-10-31T05:54:48;13.80;85.10
38480;DHT22;62333;51.980;5.934;2022-10-31T05:57:14;13.80;85.20
38480;DHT22;62333;51.980;5.934;2022-10-31T05:59:39;13.80;85.20
38480;DHT22;62333;51.980;5.934;2022-10-31T06:02:05;13.80;85.20
38480;DHT22;62333;51.980;5.934;2022-10-31T06:04:31;13.80;85.20
38480;DHT22;62333;51.980;5.934;2022-10-31T06:06:57;13.80;85.20
38480;DHT22;62333;51.980;5.934;2022-10-31T06:09:22;13.80;85.20
38480;DHT22;62333;51.980;5.934;2022-10-31T06:11:48;13.90;85.30
38480;DHT22;62333;51.980;5.934;2022-10-31T06:14:14;13.80;85.30
38480;DHT22;62333;51.980;5.934;2022-10-31T06:16:39;13.80;85.30
38480;DHT22;62333;51.980;5.934;2022-10-31T06:19:05;13.80;85.30
38480;DHT22;62333;51.980;5.934;2022-10-31T06:21:31;13.80;85.30
38480;DHT22;62333;51.980;5.934;2022-10-31T06:23:56;13.80;85.40
38480;DHT22;62333;51.980;5.934;2022-10-31T06:26:22;13.80;85.50
38480;DHT22;62333;51.980;5.934;2022-10-31T06:28:48;13.80;85.50
38480;DHT22;62333;51.980;5.934;2022-10-31T06:31:13;13.80;85.50
38480;DHT22;62333;51.980;5.934;2022-10-31T06:33:41;13.80;85.50
38480;DHT22;62333;51.980;5.934;2022-10-31T06:36:07;13.80;85.50
38480;DHT22;62333;51.980;5.934;2022-10-31T06:38:33;13.70;85.60
38480;DHT22;62333;51.980;5.934;2022-10-31T06:41:02;13.70;85.70
38480;DHT22;62333;51.980;5.934;2022-10-31T06:43:29;13.70;85.70
38480;DHT22;62333;51.980;5.934;2022-10-31T06:45:55;13.70;85.70
38480;DHT22;62333;51.980;5.934;2022-10-31T06:48:21;13.70;85.80
38480;DHT22;62333;51.980;5.934;2022-10-31T06:50:47;13.70;85.90
38480;DHT22;62333;51.980;5.934;2022-10-31T06:53:13;13.70;85.90
38480;DHT22;62333;51.980;5.934;2022-10-31T06:55:42;13.70;86.00
38480;DHT22;62333;51.980;5.934;2022-10-31T06:58:09;13.70;86.00
38480;DHT22;62333;51.980;5.934;2022-10-31T07:00:36;13.70;86.10
38480;DHT22;62333;51.980;5.934;2022-10-31T07:03:11;13.70;86.10
38480;DHT22;62333;51.980;5.934;2022-10-31T07:05:37;13.80;86.30
38480;DHT22;62333;51.980;5.934;2022-10-31T07:08:05;13.80;86.30
38480;DHT22;62333;51.980;5.934;2022-10-31T07:10:33;13.80;86.40
38480;DHT22;62333;51.980;5.934;2022-10-31T07:13:01;13.70;86.30
38480;DHT22;62333;51.980;5.934;2022-10-31T07:15:28;13.70;86.40
38480;DHT22;62333;51.980;5.934;2022-10-31T07:17:54;13.80;86.60
38480;DHT22;62333;51.980;5.934;2022-10-31T07:20:19;13.80;86.60
38480;DHT22;62333;51.980;5.934;2022-10-31T07:22:45;13.80;86.80
38480;DHT22;62333;51.980;5.934;2022-10-31T07:25:11;13.90;86.80
38480;DHT22;62333;51.980;5.934;2022-10-31T07:27:41;13.90;86.90
38480;DHT22;62333;51.980;5.934;2022-10-31T07:30:08;13.90;87.00
38480;DHT22;62333;51.980;5.934;2022-10-31T07:32:45;14.00;87.00
38480;DHT22;62333;51.980;5.934;2022-10-31T07:35:16;14.00;87.00
38480;DHT22;62333;51.980;5.934;2022-10-31T07:37:42;14.10;87.10
38480;DHT22;62333;51.980;5.934;2022-10-31T07:40:08;14.10;87.20
38480;DHT22;62333;51.980;5.934;2022-10-31T07:42:42;14.20;87.40
38480;DHT22;62333;51.980;5.934;2022-10-31T07:45:11;14.20;87.60
38480;DHT22;62333;51.980;5.934;2022-10-31T07:47:47;14.20;87.60
38480;DHT22;62333;51.980;5.934;2022-10-31T07:50:16;14.30;87.80
38480;DHT22;62333;51.980;5.934;2022-10-31T07:52:42;14.30;87.80
38480;DHT22;62333;51.980;5.934;2022-10-31T07:55:07;14.40;87.90
38480;DHT22;62333;51.980;5.934;2022-10-31T07:57:33;14.40;88.10
38480;DHT22;62333;51.980;5.934;2022-10-31T07:59:59;14.50;88.20
38480;DHT22;62333;51.980;5.934;2022-10-31T08:02:25;14.50;88.30
38480;DHT22;62333;51.980;5.934;2022-10-31T08:04:51;14.60;88.70
38480;DHT22;62333;51.980;5.934;2022-10-31T08:07:17;14.60;88.80
38480;DHT22;62333;51.980;5.934;2022-10-31T08:09:43;14.70;88.90
38480;DHT22;62333;51.980;5.934;2022-10-31T08:12:09;14.70;89.00
38480;DHT22;62333;51.980;5.934;2022-10-31T08:14:35;14.80;89.00
38480;DHT22;62333;51.980;5.934;2022-10-31T08:17:00;14.80;89.10
38480;DHT22;62333;51.980;5.934;2022-10-31T08:19:26;14.90;89.20
38480;DHT22;62333;51.980;5.934;2022-10-31T08:21:52;15.00;89.20
38480;DHT22;62333;51.980;5.934;2022-10-31T08:24:23;15.10;89.20
38480;DHT22;62333;51.980;5.934;2022-10-31T08:26:48;15.20;89.30
38480;DHT22;62333;51.980;5.934;2022-10-31T08:29:14;15.40;89.30
38480;DHT22;62333;51.980;5.934;2022-10-31T08:31:41;15.50;89.20
38480;DHT22;62333;51.980;5.934;2022-10-31T08:34:07;15.70;89.10
38480;DHT22;62333;51.980;5.934;2022-10-31T08:36:32;15.90;89.00
38480;DHT22;62333;51.980;5.934;2022-10-31T08:38:58;16.00;88.90
38480;DHT22;62333;51.980;5.934;2022-10-31T08:41:24;16.20;88.80
38480;DHT22;62333;51.980;5.934;2022-10-31T08:43:50;16.30;88.40
38480;DHT22;62333;51.980;5.934;2022-10-31T08:46:16;16.40;88.10
38480;DHT22;62333;51.980;5.934;2022-10-31T08:48:42;16.60;88.00
38480;DHT22;62333;51.980;5.934;2022-10-31T08:51:09;16.80;87.70
38480;DHT22;62333;51.980;5.934;2022-10-31T08:53:35;16.90;87.50
38480;DHT22;62333;51.980;5.934;2022-10-31T08:56:00;17.10;86.90
38480;DHT22;62333;51.980;5.934;2022-10-31T08:58:26;17.20;87.00
38480;DHT22;62333;51.980;5.934;2022-10-31T09:00:53;17.30;86.10
38480;DHT22;62333;51.980;5.934;2022-10-31T09:03:22;17.50;85.90
38480;DHT22;62333;51.980;5.934;2022-10-31T09:05:48;17.60;85.30
38480;DHT22;62333;51.980;5.934;2022-10-31T09:08:14;17.70;84.90
38480;DHT22;62333;51.980;5.934;2022-10-31T09:10:40;17.80;84.50
38480;DHT22;62333;51.980;5.934;2022-10-31T09:13:12;17.90;83.90
38480;DHT22;62333;51.980;5.934;2022-10-31T09:15:40;18.00;83.30
38480;DHT22;62333;51.980;5.934;2022-10-31T09:18:06;18.10;82.90
38480;DHT22;62333;51.980;5.934;2022-10-31T09:20:34;18.10;82.50
38480;DHT22;62333;51.980;5.934;2022-10-31T09:23:14;18.10;82.40
38480;DHT22;62333;51.980;5.934;2022-10-31T09:25:41;18.10;82.40
38480;DHT22;62333;51.980;5.934;2022-10-31T09:28:10;18.10;82.40
38480;DHT22;62333;51.980;5.934;2022-10-31T09:30:36;18.20;82.40
38480;DHT22;62333;51.980;5.934;2022-10-31T09:33:08;18.10;82.10
38480;DHT22;62333;51.980;5.934;2022-10-31T09:35:34;18.10;82.20
38480;DHT22;62333;51.980;5.934;2022-10-31T09:38:02;18.10;82.20
38480;DHT22;62333;51.980;5.934;2022-10-31T09:40:36;18.10;82.30
38480;DHT22;62333;51.980;5.934;2022-10-31T09:45:42;18.10;82.40
38480;DHT22;62333;51.980;5.934;2022-10-31T09:51:00;18.00;82.40
38480;DHT22;62333;51.980;5.934;2022-10-31T09:53:40;18.10;82.60
38480;DHT22;62333;51.980;5.934;2022-10-31T09:56:11;18.10;82.70
38480;DHT22;62333;51.980;5.934;2022-10-31T09:58:56;18.00;82.60
38480;DHT22;62333;51.980;5.934;2022-10-31T10:04:11;18.00;82.80
38480;DHT22;62333;51.980;5.934;2022-10-31T10:06:45;18.10;82.90
38480;DHT22;62333;51.980;5.934;2022-10-31T10:09:12;18.00;82.90
38480;DHT22;62333;51.980;5.934;2022-10-31T10:12:05;18.00;83.00
38480;DHT22;62333;51.980;5.934;2022-10-31T10:25:40;18.10;84.00
38480;DHT22;62333;51.980;5.934;2022-10-31T10:28:20;18.10;84.20
38480;DHT22;62333;51.980;5.934;2022-10-31T10:31:01;18.20;84.40
38480;DHT22;62333;51.980;5.934;2022-10-31T10:39:29;18.10;84.20
38480;DHT22;62333;51.980;5.934;2022-10-31T10:41:55;18.10;84.10
38480;DHT22;62333;51.980;5.934;2022-10-31T10:44:45;18.00;83.50
38480;DHT22;62333;51.980;5.934;2022-10-31T10:47:37;18.00;82.50
38480;DHT22;62333;51.980;5.934;2022-10-31T10:50:33;17.90;82.50
38480;DHT22;62333;51.980;5.934;2022-10-31T10:58:30;17.90;82.70
38480;DHT22;62333;51.980;5.934;2022-10-31T11:00:56;17.90;83.00
38480;DHT22;62333;51.980;5.934;2022-10-31T11:03:21;18.00;83.30
38480;DHT22;62333;51.980;5.934;2022-10-31T11:05:54;18.10;83.40
38480;DHT22;62333;51.980;5.934;2022-10-31T11:08:34;18.20;84.00
38480;DHT22;62333;51.980;5.934;2022-10-31T11:13:49;18.30;83.00
38480;DHT22;62333;51.980;5.934;2022-10-31T11:16:38;18.40;82.90
38480;DHT22;62333;51.980;5.934;2022-10-31T11:19:25;18.40;82.80
38480;DHT22;62333;51.980;5.934;2022-10-31T11:21:53;18.50;82.70
38480;DHT22;62333;51.980;5.934;2022-10-31T11:24:24;18.50;82.70
38480;DHT22;62333;51.980;5.934;2022-10-31T11:27:11;18.60;82.70
38480;DHT22;62333;51.980;5.934;2022-10-31T11:29:38;18.70;82.60
38480;DHT22;62333;51.980;5.934;2022-10-31T11:32:04;18.70;82.50
38480;DHT22;62333;51.980;5.934;2022-10-31T11:34:33;18.70;82.30
38480;DHT22;62333;51.980;5.934;2022-10-31T11:37:13;18.70;82.20
38480;DHT22;62333;51.980;5.934;2022-10-31T11:39:45;18.70;82.10
38480;DHT22;62333;51.980;5.934;2022-10-31T11:42:20;18.70;82.10
38480;DHT22;62333;51.980;5.934;2022-10-31T11:44:46;18.70;82.20
38480;DHT22;62333;51.980;5.934;2022-10-31T11:47:15;18.70;82.20
38480;DHT22;62333;51.980;5.934;2022-10-31T11:49:46;18.60;82.00
38480;DHT22;62333;51.980;5.934;2022-10-31T11:52:22;18.70;82.20
38480;DHT22;62333;51.980;5.934;2022-10-31T11:54:57;18.70;82.20
38480;DHT22;62333;51.980;5.934;2022-10-31T11:57:27;18.70;82.30
38480;DHT22;62333;51.980;5.934;2022-10-31T11:59:55;18.70;82.40
38480;DHT22;62333;51.980;5.934;2022-10-31T12:02:22;18.70;82.50
38480;DHT22;62333;51.980;5.934;2022-10-31T12:05:20;18.70;82.60
38480;DHT22;62333;51.980;5.934;2022-10-31T12:07:48;18.70;82.70
38480;DHT22;62333;51.980;5.934;2022-10-31T12:10:15;18.80;82.90
38480;DHT22;62333;51.980;5.934;2022-10-31T12:13:01;18.80;82.90
38480;DHT22;62333;51.980;5.934;2022-10-31T12:15:36;18.80;82.90
38480;DHT22;62333;51.980;5.934;2022-10-31T12:21:14;18.90;82.90
38480;DHT22;62333;51.980;5.934;2022-10-31T12:24:18;18.90;82.90
38480;DHT22;62333;51.980;5.934;2022-10-31T12:27:21;19.00;82.90
38480;DHT22;62333;51.980;5.934;2022-10-31T12:30:21;19.00;82.80
38480;DHT22;62333;51.980;5.934;2022-10-31T12:33:20;19.00;82.70
38480;DHT22;62333;51.980;5.934;2022-10-31T12:35:59;19.00;82.70
38480;DHT22;62333;51.980;5.934;2022-10-31T12:38:38;19.00;82.60
38480;DHT22;62333;51.980;5.934;2022-10-31T12:43:44;18.90;82.60
38480;DHT22;62333;51.980;5.934;2022-10-31T12:46:25;18.90;82.70
38480;DHT22;62333;51.980;5.934;2022-10-31T12:51:32;19.00;82.80
38480;DHT22;62333;51.980;5.934;2022-10-31T13:00:02;19.00;83.10
38480;DHT22;62333;51.980;5.934;2022-10-31T13:16:01;19.20;83.30
38480;DHT22;62333;51.980;5.934;2022-10-31T13:18:37;19.20;83.10
38480;DHT22;62333;51.980;5.934;2022-10-31T13:21:09;19.30;83.00
38480;DHT22;62333;51.980;5.934;2022-10-31T13:23:38;19.40;82.90
38480;DHT22;62333;51.980;5.934;2022-10-31T13:26:21;19.40;82.70
38480;DHT22;62333;51.980;5.934;2022-10-31T13:29:09;19.40;82.40
38480;DHT22;62333;51.980;5.934;2022-10-31T13:31:40;19.40;82.30
38480;DHT22;62333;51.980;5.934;2022-10-31T13:34:21;19.40;82.20
38480;DHT22;62333;51.980;5.934;2022-10-31T13:42:16;19.40;82.10
38480;DHT22;62333;51.980;5.934;2022-10-31T13:44:44;19.40;81.90
38480;DHT22;62333;51.980;5.934;2022-10-31T13:47:40;19.40;81.80
38480;DHT22;62333;51.980;5.934;2022-10-31T13:50:23;19.40;81.70
38480;DHT22;62333;51.980;5.934;2022-10-31T13:52:49;19.30;81.60
38480;DHT22;62333;51.980;5.934;2022-10-31T13:55:35;19.20;81.40
38480;DHT22;62333;51.980;5.934;2022-10-31T13:58:25;19.20;81.20
38480;DHT22;62333;51.980;5.934;2022-10-31T14:03:25;19.20;81.40
38480;DHT22;62333;51.980;5.934;2022-10-31T14:05:55;19.20;81.60
38480;DHT22;62333;51.980;5.934;2022-10-31T14:08:23;19.20;81.60
38480;DHT22;62333;51.980;5.934;2022-10-31T14:10:54;19.20;81.60
38480;DHT22;62333;51.980;5.934;2022-10-31T14:13:31;19.20;81.60
38480;DHT22;62333;51.980;5.934;2022-10-31T14:16:04;19.10;81.50
38480;DHT22;62333;51.980;5.934;2022-10-31T14:18:36;19.00;81.50
38480;DHT22;62333;51.980;5.934;2022-10-31T14:23:51;19.10;81.50
38480;DHT22;62333;51.980;5.934;2022-10-31T14:28:50;19.00;81.50
38480;DHT22;62333;51.980;5.934;2022-10-31T14:48:25;18.80;82.40
38480;DHT22;62333;51.980;5.934;2022-10-31T14:50:57;18.80;82.50
38480;DHT22;62333;51.980;5.934;2022-10-31T14:53:49;18.80;82.70
38480;DHT22;62333;51.980;5.934;2022-10-31T14:56:23;18.80;82.80
38480;DHT22;62333;51.980;5.934;2022-10-31T14:58:50;18.80;82.80
38480;DHT22;62333;51.980;5.934;2022-10-31T15:01:29;18.80;82.90
38480;DHT22;62333;51.980;5.934;2022-10-31T15:04:03;18.80;82.90
38480;DHT22;62333;51.980;5.934;2022-10-31T15:06:35;18.70;82.90
38480;DHT22;62333;51.980;5.934;2022-10-31T15:09:03;18.70;83.00
38480;DHT22;62333;51.980;5.934;2022-10-31T15:11:37;18.70;83.10
38480;DHT22;62333;51.980;5.934;2022-10-31T15:14:24;18.70;83.20
38480;DHT22;62333;51.980;5.934;2022-10-31T15:16:51;18.70;83.20
38480;DHT22;62333;51.980;5.934;2022-10-31T15:19:22;18.60;83.30
38480;DHT22;62333;51.980;5.934;2022-10-31T15:21:51;18.60;83.50
38480;DHT22;62333;51.980;5.934;2022-10-31T15:24:16;18.50;83.50
38480;DHT22;62333;51.980;5.934;2022-10-31T15:26:52;18.50;83.70
38480;DHT22;62333;51.980;5.934;2022-10-31T15:29:20;18.50;83.80
38480;DHT22;62333;51.980;5.934;2022-10-31T15:34:39;18.40;84.10
38480;DHT22;62333;51.980;5.934;2022-10-31T15:37:12;18.40;84.20
38480;DHT22;62333;51.980;5.934;2022-10-31T15:39:39;18.30;84.40
38480;DHT22;62333;51.980;5.934;2022-10-31T15:42:17;18.30;84.60
38480;DHT22;62333;51.980;5.934;2022-10-31T15:44:44;18.30;84.70
38480;DHT22;62333;51.980;5.934;2022-10-31T15:47:19;18.20;84.80
38480;DHT22;62333;51.980;5.934;2022-10-31T15:52:17;18.20;85.20
38480;DHT22;62333;51.980;5.934;2022-10-31T15:54:53;18.20;85.20
38480;DHT22;62333;51.980;5.934;2022-10-31T15:57:21;18.20;85.30
38480;DHT22;62333;51.980;5.934;2022-10-31T15:59:48;18.20;85.40
38480;DHT22;62333;51.980;5.934;2022-10-31T16:02:24;18.10;85.50
38480;DHT22;62333;51.980;5.934;2022-10-31T16:04:53;18.10;85.50
38480;DHT22;62333;51.980;5.934;2022-10-31T16:07:20;18.10;85.60
38480;DHT22;62333;51.980;5.934;2022-10-31T16:10:04;18.10;85.70
38480;DHT22;62333;51.980;5.934;2022-10-31T16:12:35;18.10;85.70
38480;DHT22;62333;51.980;5.934;2022-10-31T16:15:01;18.10;85.90
38480;DHT22;62333;51.980;5.934;2022-10-31T16:17:28;18.10;85.90
38480;DHT22;62333;51.980;5.934;2022-10-31T16:19:58;18.10;86.00
38480;DHT22;62333;51.980;5.934;2022-10-31T16:22:36;18.10;86.10
38480;DHT22;62333;51.980;5.934;2022-10-31T16:25:10;18.00;86.10
38480;DHT22;62333;51.980;5.934;2022-10-31T16:27:37;18.00;86.20
38480;DHT22;62333;51.980;5.934;2022-10-31T16:33:01;17.90;86.30
38480;DHT22;62333;51.980;5.934;2022-10-31T16:35:34;18.00;86.50
38480;DHT22;62333;51.980;5.934;2022-10-31T16:38:00;17.90;86.50
38480;DHT22;62333;51.980;5.934;2022-10-31T16:40:26;17.90;86.60
38480;DHT22;62333;51.980;5.934;2022-10-31T16:42:52;17.90;86.70
38480;DHT22;62333;51.980;5.934;2022-10-31T16:45:21;17.90;86.80
38480;DHT22;62333;51.980;5.934;2022-10-31T16:47:47;17.90;86.80
38480;DHT22;62333;51.980;5.934;2022-10-31T16:50:24;17.90;86.80
38480;DHT22;62333;51.980;5.934;2022-10-31T16:52:51;17.90;86.80
38480;DHT22;62333;51.980;5.934;2022-10-31T16:55:18;17.90;87.50
38480;DHT22;62333;51.980;5.934;2022-10-31T16:57:52;17.90;87.00
38480;DHT22;62333;51.980;5.934;2022-10-31T17:00:22;17.80;87.00
38480;DHT22;62333;51.980;5.934;2022-10-31T17:02:50;17.80;87.10
38480;DHT22;62333;51.980;5.934;2022-10-31T17:05:18;17.80;87.80
38480;DHT22;62333;51.980;5.934;2022-10-31T17:07:43;17.80;87.20
38480;DHT22;62333;51.980;5.934;2022-10-31T17:10:11;17.80;88.00
38480;DHT22;62333;51.980;5.934;2022-10-31T17:12:39;17.70;87.30
38480;DHT22;62333;51.980;5.934;2022-10-31T17:15:26;17.70;87.40
38480;DHT22;62333;51.980;5.934;2022-10-31T17:17:52;17.60;87.40
38480;DHT22;62333;51.980;5.934;2022-10-31T17:20:21;17.60;87.60
38480;DHT22;62333;51.980;5.934;2022-10-31T17:22:47;17.60;87.50
38480;DHT22;62333;51.980;5.934;2022-10-31T17:25:16;17.60;87.70
38480;DHT22;62333;51.980;5.934;2022-10-31T17:27:42;17.60;87.70
38480;DHT22;62333;51.980;5.934;2022-10-31T17:30:08;17.50;87.70
38480;DHT22;62333;51.980;5.934;2022-10-31T17:32:35;17.60;87.80
38480;DHT22;62333;51.980;5.934;2022-10-31T17:35:01;17.50;87.70
38480;DHT22;62333;51.980;5.934;2022-10-31T17:37:26;17.50;87.90
38480;DHT22;62333;51.980;5.934;2022-10-31T17:39:52;17.50;87.90
38480;DHT22;62333;51.980;5.934;2022-10-31T17:42:17;17.50;87.90
38480;DHT22;62333;51.980;5.934;2022-10-31T17:44:43;17.50;88.00
38480;DHT22;62333;51.980;5.934;2022-10-31T17:47:09;17.40;88.00
38480;DHT22;62333;51.980;5.934;2022-10-31T17:49:34;17.40;88.00
38480;DHT22;62333;51.980;5.934;2022-10-31T17:52:00;17.40;88.10
38480;DHT22;62333;51.980;5.934;2022-10-31T17:54:25;17.40;88.10